sensor_id;sensor_type;location;lat;lon;timestamp;P1;durP1;ratioP1;P2;durP2;ratioP2
26620;SDS011;14253;44.840;10.444;2022-12-18T00:00:58;53.78;;;33.08;;
26620;SDS011;14253;44.840;10.444;2022-12-18T00:03:24;57.28;;;34.35;;
26620;SDS011;14253;44.840;10.444;2022-12-18T00:05:51;57.13;;;34.42;;
26620;SDS011;14253;44.840;10.444;2022-12-18T00:08:18;59.17;;;35.20;;
26620;SDS011;14253;44.840;10.444;2022-12-18T00:10:44;58.53;;;33.55;;
26620;SDS011;14253;44.840;10.444;2022-12-18T00:13:11;58.10;;;34.00;;
26620;SDS011;14253;44.840;10.444;2022-12-18T00:15:38;59.85;;;34.47;;
26620;SDS011;14253;44.840;10.444;2022-12-18T00:18:05;59.45;;;33.80;;
26620;SDS011;14253;44.840;10.444;2022-12-18T00:20:32;58.20;;;34.03;;
26620;SDS011;14253;44.840;10.444;2022-12-18T00:23:02;55.33;;;32.63;;
26620;SDS011;14253;44.840;10.444;2022-12-18T00:25:28;57.85;;;33.35;;
26620;SDS011;14253;44.840;10.444;2022-12-18T00:27:54;56.83;;;33.22;;
26620;SDS011;14253;44.840;10.444;2022-12-18T00:30:19;59.03;;;34.20;;
26620;SDS011;14253;44.840;10.444;2022-12-18T00:32:45;57.47;;;32.28;;
26620;SDS011;14253;44.840;10.444;2022-12-18T00:35:11;56.08;;;32.45;;
26620;SDS011;14253;44.840;10.444;2022-12-18T00:37:37;54.28;;;31.80;;
26620;SDS011;14253;44.840;10.444;2022-12-18T00:40:03;61.85;;;34.55;;
26620;SDS011;14253;44.840;10.444;2022-12-18T00:42:29;59.45;;;34.33;;
26620;SDS011;14253;44.840;10.444;2022-12-18T00:45:14;56.53;;;33.45;;
26620;SDS011;14253;44.840;10.444;2022-12-18T00:47:40;57.90;;;32.38;;
26620;SDS011;14253;44.840;10.444;2022-12-18T00:50:06;49.22;;;31.17;;
26620;SDS011;14253;44.840;10.444;2022-12-18T00:52:33;49.83;;;31.50;;
26620;SDS011;14253;44.840;10.444;2022-12-18T00:54:59;51.60;;;30.95;;
26620;SDS011;14253;44.840;10.444;2022-12-18T00:57:25;52.17;;;31.63;;
26620;SDS011;14253;44.840;10.444;2022-12-18T00:59:51;65.10;;;36.20;;
26620;SDS011;14253;44.840;10.444;2022-12-18T01:02:17;60.53;;;35.03;;
26620;SDS011;14253;44.840;10.444;2022-12-18T01:04:43;57.30;;;33.55;;
26620;SDS011;14253;44.840;10.444;2022-12-18T01:07:09;55.38;;;33.13;;
26620;SDS011;14253;44.840;10.444;2022-12-18T01:09:35;56.85;;;35.08;;
26620;SDS011;14253;44.840;10.444;2022-12-18T01:12:01;58.72;;;34.35;;
26620;SDS011;14253;44.840;10.444;2022-12-18T01:14:27;62.33;;;35.70;;
26620;SDS011;14253;44.840;10.444;2022-12-18T01:16:52;62.92;;;38.28;;
26620;SDS011;14253;44.840;10.444;2022-12-18T01:19:18;61.72;;;36.47;;
26620;SDS011;14253;44.840;10.444;2022-12-18T01:21:45;61.60;;;34.53;;
26620;SDS011;14253;44.840;10.444;2022-12-18T01:24:12;56.55;;;34.40;;
26620;SDS011;14253;44.840;10.444;2022-12-18T01:26:38;58.25;;;33.83;;
26620;SDS011;14253;44.840;10.444;2022-12-18T01:29:04;58.03;;;33.10;;
26620;SDS011;14253;44.840;10.444;2022-12-18T01:31:31;59.55;;;34.95;;
26620;SDS011;14253;44.840;10.444;2022-12-18T01:34:01;64.80;;;33.20;;
26620;SDS011;14253;44.840;10.444;2022-12-18T01:36:28;52.85;;;32.35;;
26620;SDS011;14253;44.840;10.444;2022-12-18T01:38:56;52.60;;;31.85;;
26620;SDS011;14253;44.840;10.444;2022-12-18T01:41:25;57.03;;;34.10;;
26620;SDS011;14253;44.840;10.444;2022-12-18T01:53:07;55.72;;;31.60;;
26620;SDS011;14253;44.840;10.444;2022-12-18T01:55:47;59.35;;;31.73;;
26620;SDS011;14253;44.840;10.444;2022-12-18T01:58:20;55.92;;;32.50;;
26620;SDS011;14253;44.840;10.444;2022-12-18T02:01:06;66.03;;;34.05;;
26620;SDS011;14253;44.840;10.444;2022-12-18T02:03:32;58.25;;;32.42;;
26620;SDS011;14253;44.840;10.444;2022-12-18T02:08:26;71.38;;;36.83;;
26620;SDS011;14253;44.840;10.444;2022-12-18T02:11:24;67.75;;;37.55;;
26620;SDS011;14253;44.840;10.444;2022-12-18T02:17:00;64.20;;;35.67;;
26620;SDS011;14253;44.840;10.444;2022-12-18T02:22:26;69.82;;;35.67;;
26620;SDS011;14253;44.840;10.444;2022-12-18T02:27:43;66.90;;;35.10;;
26620;SDS011;14253;44.840;10.444;2022-12-18T02:30:12;64.03;;;35.25;;
26620;SDS011;14253;44.840;10.444;2022-12-18T02:32:41;50.95;;;33.28;;
26620;SDS011;14253;44.840;10.444;2022-12-18T02:35:15;58.80;;;34.00;;
26620;SDS011;14253;44.840;10.444;2022-12-18T02:37:49;59.85;;;35.30;;
26620;SDS011;14253;44.840;10.444;2022-12-18T02:40:16;58.47;;;34.83;;
26620;SDS011;14253;44.840;10.444;2022-12-18T02:42:43;55.92;;;34.92;;
26620;SDS011;14253;44.840;10.444;2022-12-18T02:45:13;58.17;;;35.03;;
26620;SDS011;14253;44.840;10.444;2022-12-18T02:47:40;60.13;;;35.42;;
26620;SDS011;14253;44.840;10.444;2022-12-18T02:56:11;57.83;;;35.60;;
26620;SDS011;14253;44.840;10.444;2022-12-18T02:58:51;62.20;;;36.03;;
26620;SDS011;14253;44.840;10.444;2022-12-18T03:01:51;58.47;;;35.28;;
26620;SDS011;14253;44.840;10.444;2022-12-18T03:04:30;61.58;;;37.22;;
26620;SDS011;14253;44.840;10.444;2022-12-18T03:07:04;66.63;;;41.55;;
26620;SDS011;14253;44.840;10.444;2022-12-18T03:09:35;71.85;;;41.67;;
26620;SDS011;14253;44.840;10.444;2022-12-18T03:12:30;66.25;;;37.75;;
26620;SDS011;14253;44.840;10.444;2022-12-18T03:17:31;60.85;;;35.22;;
26620;SDS011;14253;44.840;10.444;2022-12-18T03:20:00;63.13;;;36.88;;
26620;SDS011;14253;44.840;10.444;2022-12-18T03:22:34;59.35;;;34.70;;
26620;SDS011;14253;44.840;10.444;2022-12-18T03:25:04;62.60;;;36.42;;
26620;SDS011;14253;44.840;10.444;2022-12-18T03:27:35;53.17;;;32.38;;
26620;SDS011;14253;44.840;10.444;2022-12-18T03:30:08;53.90;;;31.80;;
26620;SDS011;14253;44.840;10.444;2022-12-18T03:32:42;55.75;;;33.10;;
26620;SDS011;14253;44.840;10.444;2022-12-18T03:35:22;56.70;;;33.85;;
26620;SDS011;14253;44.840;10.444;2022-12-18T03:37:55;57.42;;;33.35;;
26620;SDS011;14253;44.840;10.444;2022-12-18T03:40:23;55.55;;;32.47;;
26620;SDS011;14253;44.840;10.444;2022-12-18T03:46:27;48.70;;;32.05;;
26620;SDS011;14253;44.840;10.444;2022-12-18T03:49:18;52.65;;;31.85;;
26620;SDS011;14253;44.840;10.444;2022-12-18T03:52:05;52.47;;;31.58;;
26620;SDS011;14253;44.840;10.444;2022-12-18T03:54:38;52.33;;;31.70;;
26620;SDS011;14253;44.840;10.444;2022-12-18T03:57:13;52.40;;;31.05;;
26620;SDS011;14253;44.840;10.444;2022-12-18T03:59:43;50.72;;;31.75;;
26620;SDS011;14253;44.840;10.444;2022-12-18T04:02:13;50.67;;;31.17;;
26620;SDS011;14253;44.840;10.444;2022-12-18T04:04:42;48.95;;;30.38;;
26620;SDS011;14253;44.840;10.444;2022-12-18T04:07:09;55.05;;;33.03;;
26620;SDS011;14253;44.840;10.444;2022-12-18T04:09:38;52.45;;;32.30;;
26620;SDS011;14253;44.840;10.444;2022-12-18T04:12:06;51.40;;;31.13;;
26620;SDS011;14253;44.840;10.444;2022-12-18T04:14:34;50.03;;;31.63;;
26620;SDS011;14253;44.840;10.444;2022-12-18T04:17:02;47.97;;;29.45;;
26620;SDS011;14253;44.840;10.444;2022-12-18T04:19:31;51.30;;;31.40;;
26620;SDS011;14253;44.840;10.444;2022-12-18T04:21:58;51.45;;;31.30;;
26620;SDS011;14253;44.840;10.444;2022-12-18T04:24:25;50.83;;;31.15;;
26620;SDS011;14253;44.840;10.444;2022-12-18T04:27:14;50.38;;;31.58;;
26620;SDS011;14253;44.840;10.444;2022-12-18T04:29:44;51.83;;;32.13;;
26620;SDS011;14253;44.840;10.444;2022-12-18T04:32:11;52.88;;;32.90;;
26620;SDS011;14253;44.840;10.444;2022-12-18T04:34:38;50.17;;;32.08;;
26620;SDS011;14253;44.840;10.444;2022-12-18T04:37:04;53.13;;;32.08;;
26620;SDS011;14253;44.840;10.444;2022-12-18T04:39:31;53.05;;;31.08;;
26620;SDS011;14253;44.840;10.444;2022-12-18T04:44:28;51.30;;;30.52;;
26620;SDS011;14253;44.840;10.444;2022-12-18T04:46:55;49.70;;;29.63;;
26620;SDS011;14253;44.840;10.444;2022-12-18T04:49:21;48.90;;;30.65;;
26620;SDS011;14253;44.840;10.444;2022-12-18T04:51:47;46.95;;;29.65;;
26620;SDS011;14253;44.840;10.444;2022-12-18T04:54:13;48.83;;;29.23;;
26620;SDS011;14253;44.840;10.444;2022-12-18T04:56:39;48.30;;;30.42;;
26620;SDS011;14253;44.840;10.444;2022-12-18T04:59:05;46.33;;;28.60;;
26620;SDS011;14253;44.840;10.444;2022-12-18T05:01:31;49.80;;;30.13;;
26620;SDS011;14253;44.840;10.444;2022-12-18T05:03:57;43.65;;;28.10;;
26620;SDS011;14253;44.840;10.444;2022-12-18T05:06:23;47.10;;;29.85;;
26620;SDS011;14253;44.840;10.444;2022-12-18T05:08:49;45.70;;;29.10;;
26620;SDS011;14253;44.840;10.444;2022-12-18T05:11:15;48.72;;;29.10;;
26620;SDS011;14253;44.840;10.444;2022-12-18T05:13:41;50.38;;;29.83;;
26620;SDS011;14253;44.840;10.444;2022-12-18T05:16:09;52.17;;;30.58;;
26620;SDS011;14253;44.840;10.444;2022-12-18T05:18:35;74.97;;;31.70;;
26620;SDS011;14253;44.840;10.444;2022-12-18T05:21:02;77.68;;;33.33;;
26620;SDS011;14253;44.840;10.444;2022-12-18T05:23:28;82.93;;;30.70;;
26620;SDS011;14253;44.840;10.444;2022-12-18T05:25:55;84.25;;;31.55;;
26620;SDS011;14253;44.840;10.444;2022-12-18T05:28:24;118.40;;;35.45;;
26620;SDS011;14253;44.840;10.444;2022-12-18T05:30:51;129.48;;;34.00;;
26620;SDS011;14253;44.840;10.444;2022-12-18T05:33:20;106.30;;;31.35;;
26620;SDS011;14253;44.840;10.444;2022-12-18T05:35:51;123.30;;;32.17;;
26620;SDS011;14253;44.840;10.444;2022-12-18T05:38:21;94.80;;;30.98;;
26620;SDS011;14253;44.840;10.444;2022-12-18T05:40:49;81.00;;;32.05;;
26620;SDS011;14253;44.840;10.444;2022-12-18T05:43:16;135.63;;;32.10;;
26620;SDS011;14253;44.840;10.444;2022-12-18T05:45:43;72.00;;;32.58;;
26620;SDS011;14253;44.840;10.444;2022-12-18T05:48:09;73.78;;;32.67;;
26620;SDS011;14253;44.840;10.444;2022-12-18T05:50:39;102.65;;;34.22;;
26620;SDS011;14253;44.840;10.444;2022-12-18T05:53:06;137.95;;;35.28;;
26620;SDS011;14253;44.840;10.444;2022-12-18T05:55:33;66.45;;;32.03;;
26620;SDS011;14253;44.840;10.444;2022-12-18T05:58:00;130.38;;;37.00;;
26620;SDS011;14253;44.840;10.444;2022-12-18T06:00:27;95.50;;;33.97;;
26620;SDS011;14253;44.840;10.444;2022-12-18T06:02:53;111.57;;;34.55;;
26620;SDS011;14253;44.840;10.444;2022-12-18T06:05:19;108.85;;;34.65;;
26620;SDS011;14253;44.840;10.444;2022-12-18T06:07:45;87.53;;;38.55;;
26620;SDS011;14253;44.840;10.444;2022-12-18T06:10:11;104.10;;;33.75;;
26620;SDS011;14253;44.840;10.444;2022-12-18T06:12:37;104.38;;;36.75;;
26620;SDS011;14253;44.840;10.444;2022-12-18T06:15:03;100.65;;;35.38;;
26620;SDS011;14253;44.840;10.444;2022-12-18T06:17:30;115.93;;;35.78;;
26620;SDS011;14253;44.840;10.444;2022-12-18T06:19:57;103.15;;;35.40;;
26620;SDS011;14253;44.840;10.444;2022-12-18T06:22:23;98.43;;;35.67;;
26620;SDS011;14253;44.840;10.444;2022-12-18T06:24:49;80.43;;;35.85;;
26620;SDS011;14253;44.840;10.444;2022-12-18T06:27:15;162.02;;;37.03;;
26620;SDS011;14253;44.840;10.444;2022-12-18T06:29:41;124.60;;;37.00;;
26620;SDS011;14253;44.840;10.444;2022-12-18T06:32:07;132.98;;;36.22;;
26620;SDS011;14253;44.840;10.444;2022-12-18T06:34:34;115.07;;;35.13;;
26620;SDS011;14253;44.840;10.444;2022-12-18T06:37:02;110.57;;;36.95;;
26620;SDS011;14253;44.840;10.444;2022-12-18T06:39:28;96.22;;;36.45;;
26620;SDS011;14253;44.840;10.444;2022-12-18T06:41:54;85.30;;;36.22;;
26620;SDS011;14253;44.840;10.444;2022-12-18T06:44:21;95.97;;;36.42;;
26620;SDS011;14253;44.840;10.444;2022-12-18T06:46:47;77.07;;;34.85;;
26620;SDS011;14253;44.840;10.444;2022-12-18T06:49:13;87.18;;;36.10;;
26620;SDS011;14253;44.840;10.444;2022-12-18T06:51:39;83.38;;;34.70;;
26620;SDS011;14253;44.840;10.444;2022-12-18T06:54:04;90.47;;;36.13;;
26620;SDS011;14253;44.840;10.444;2022-12-18T06:56:30;95.93;;;34.58;;
26620;SDS011;14253;44.840;10.444;2022-12-18T06:58:56;104.32;;;36.10;;
26620;SDS011;14253;44.840;10.444;2022-12-18T07:01:22;73.10;;;35.70;;
26620;SDS011;14253;44.840;10.444;2022-12-18T07:03:52;109.50;;;40.83;;
26620;SDS011;14253;44.840;10.444;2022-12-18T07:06:20;116.03;;;36.40;;
26620;SDS011;14253;44.840;10.444;2022-12-18T07:08:48;104.55;;;37.45;;
26620;SDS011;14253;44.840;10.444;2022-12-18T07:11:15;89.53;;;35.95;;
26620;SDS011;14253;44.840;10.444;2022-12-18T07:13:43;125.53;;;34.88;;
26620;SDS011;14253;44.840;10.444;2022-12-18T07:16:13;115.75;;;33.67;;
26620;SDS011;14253;44.840;10.444;2022-12-18T07:18:41;107.47;;;36.92;;
26620;SDS011;14253;44.840;10.444;2022-12-18T07:21:10;101.80;;;38.42;;
26620;SDS011;14253;44.840;10.444;2022-12-18T07:23:37;140.38;;;35.78;;
26620;SDS011;14253;44.840;10.444;2022-12-18T07:26:04;115.15;;;37.30;;
26620;SDS011;14253;44.840;10.444;2022-12-18T07:28:37;133.80;;;36.60;;
26620;SDS011;14253;44.840;10.444;2022-12-18T07:31:06;94.03;;;36.30;;
26620;SDS011;14253;44.840;10.444;2022-12-18T07:33:35;124.63;;;36.40;;
26620;SDS011;14253;44.840;10.444;2022-12-18T07:36:01;81.10;;;34.28;;
26620;SDS011;14253;44.840;10.444;2022-12-18T07:38:29;139.85;;;36.95;;
26620;SDS011;14253;44.840;10.444;2022-12-18T07:41:09;91.13;;;38.75;;
26620;SDS011;14253;44.840;10.444;2022-12-18T07:43:37;131.45;;;36.65;;
26620;SDS011;14253;44.840;10.444;2022-12-18T07:46:04;144.85;;;34.38;;
26620;SDS011;14253;44.840;10.444;2022-12-18T07:48:31;187.02;;;32.75;;
26620;SDS011;14253;44.840;10.444;2022-12-18T07:51:04;108.53;;;33.63;;
26620;SDS011;14253;44.840;10.444;2022-12-18T07:53:32;123.70;;;32.50;;
26620;SDS011;14253;44.840;10.444;2022-12-18T07:56:00;119.90;;;34.30;;
26620;SDS011;14253;44.840;10.444;2022-12-18T07:58:28;157.32;;;33.15;;
26620;SDS011;14253;44.840;10.444;2022-12-18T08:00:54;114.03;;;30.98;;
26620;SDS011;14253;44.840;10.444;2022-12-18T08:03:37;214.48;;;37.80;;
26620;SDS011;14253;44.840;10.444;2022-12-18T08:06:05;126.43;;;34.75;;
26620;SDS011;14253;44.840;10.444;2022-12-18T08:08:35;118.10;;;32.53;;
26620;SDS011;14253;44.840;10.444;2022-12-18T08:11:01;153.48;;;32.70;;
26620;SDS011;14253;44.840;10.444;2022-12-18T08:13:28;123.68;;;32.55;;
26620;SDS011;14253;44.840;10.444;2022-12-18T08:16:01;125.72;;;33.78;;
26620;SDS011;14253;44.840;10.444;2022-12-18T08:18:28;94.80;;;32.90;;
26620;SDS011;14253;44.840;10.444;2022-12-18T08:20:55;132.18;;;33.92;;
26620;SDS011;14253;44.840;10.444;2022-12-18T08:23:21;144.43;;;32.38;;
26620;SDS011;14253;44.840;10.444;2022-12-18T08:25:47;146.82;;;33.63;;
26620;SDS011;14253;44.840;10.444;2022-12-18T08:28:13;127.93;;;33.13;;
26620;SDS011;14253;44.840;10.444;2022-12-18T08:30:39;125.13;;;34.90;;
26620;SDS011;14253;44.840;10.444;2022-12-18T08:33:05;196.95;;;34.47;;
26620;SDS011;14253;44.840;10.444;2022-12-18T08:35:34;110.25;;;31.27;;
26620;SDS011;14253;44.840;10.444;2022-12-18T08:38:01;138.80;;;31.52;;
26620;SDS011;14253;44.840;10.444;2022-12-18T08:40:28;133.32;;;32.78;;
26620;SDS011;14253;44.840;10.444;2022-12-18T08:42:54;171.15;;;32.72;;
26620;SDS011;14253;44.840;10.444;2022-12-18T08:45:38;126.78;;;34.35;;
26620;SDS011;14253;44.840;10.444;2022-12-18T08:48:04;198.57;;;35.90;;
26620;SDS011;14253;44.840;10.444;2022-12-18T08:50:31;99.20;;;33.83;;
26620;SDS011;14253;44.840;10.444;2022-12-18T08:52:56;104.05;;;33.40;;
26620;SDS011;14253;44.840;10.444;2022-12-18T08:55:22;90.55;;;33.00;;
26620;SDS011;14253;44.840;10.444;2022-12-18T08:57:48;148.05;;;35.58;;
26620;SDS011;14253;44.840;10.444;2022-12-18T09:00:15;95.03;;;32.85;;
26620;SDS011;14253;44.840;10.444;2022-12-18T09:02:41;126.25;;;35.17;;
26620;SDS011;14253;44.840;10.444;2022-12-18T09:05:07;130.93;;;34.92;;
26620;SDS011;14253;44.840;10.444;2022-12-18T09:07:33;108.30;;;34.63;;
26620;SDS011;14253;44.840;10.444;2022-12-18T09:09:59;96.30;;;36.17;;
26620;SDS011;14253;44.840;10.444;2022-12-18T09:12:29;106.68;;;37.38;;
26620;SDS011;14253;44.840;10.444;2022-12-18T09:15:06;84.78;;;35.85;;
26620;SDS011;14253;44.840;10.444;2022-12-18T09:17:34;71.10;;;34.80;;
26620;SDS011;14253;44.840;10.444;2022-12-18T09:20:00;90.85;;;38.47;;
26620;SDS011;14253;44.840;10.444;2022-12-18T09:22:26;73.07;;;35.08;;
26620;SDS011;14253;44.840;10.444;2022-12-18T09:24:52;91.15;;;37.67;;
26620;SDS011;14253;44.840;10.444;2022-12-18T09:27:19;75.22;;;34.25;;
26620;SDS011;14253;44.840;10.444;2022-12-18T09:29:45;83.72;;;35.50;;
26620;SDS011;14253;44.840;10.444;2022-12-18T09:32:10;71.80;;;33.35;;
26620;SDS011;14253;44.840;10.444;2022-12-18T09:34:36;59.13;;;29.83;;
26620;SDS011;14253;44.840;10.444;2022-12-18T09:37:02;62.72;;;31.02;;
26620;SDS011;14253;44.840;10.444;2022-12-18T09:39:28;64.40;;;32.17;;
26620;SDS011;14253;44.840;10.444;2022-12-18T09:41:55;59.47;;;31.52;;
26620;SDS011;14253;44.840;10.444;2022-12-18T09:44:27;65.55;;;29.02;;
26620;SDS011;14253;44.840;10.444;2022-12-18T09:47:16;63.60;;;31.95;;
26620;SDS011;14253;44.840;10.444;2022-12-18T09:50:05;57.40;;;30.75;;
26620;SDS011;14253;44.840;10.444;2022-12-18T09:52:45;66.57;;;30.95;;
26620;SDS011;14253;44.840;10.444;2022-12-18T09:57:55;59.42;;;30.38;;
26620;SDS011;14253;44.840;10.444;2022-12-18T10:00:28;63.40;;;32.92;;
26620;SDS011;14253;44.840;10.444;2022-12-18T10:02:59;82.10;;;44.05;;
26620;SDS011;14253;44.840;10.444;2022-12-18T10:14:33;64.15;;;31.80;;
26620;SDS011;14253;44.840;10.444;2022-12-18T10:20:28;58.75;;;30.85;;
26620;SDS011;14253;44.840;10.444;2022-12-18T10:23:41;60.22;;;29.70;;
26620;SDS011;14253;44.840;10.444;2022-12-18T10:28:24;55.25;;;28.50;;
26620;SDS011;14253;44.840;10.444;2022-12-18T10:30:52;59.17;;;28.92;;
26620;SDS011;14253;44.840;10.444;2022-12-18T10:33:19;54.08;;;28.15;;
26620;SDS011;14253;44.840;10.444;2022-12-18T10:35:48;60.40;;;28.02;;
26620;SDS011;14253;44.840;10.444;2022-12-18T10:46:21;58.80;;;29.95;;
26620;SDS011;14253;44.840;10.444;2022-12-18T10:51:19;57.00;;;29.67;;
26620;SDS011;14253;44.840;10.444;2022-12-18T10:53:52;60.38;;;29.92;;
26620;SDS011;14253;44.840;10.444;2022-12-18T10:56:24;54.20;;;29.15;;
26620;SDS011;14253;44.840;10.444;2022-12-18T10:58:56;58.95;;;29.83;;
26620;SDS011;14253;44.840;10.444;2022-12-18T11:01:24;56.30;;;29.98;;
26620;SDS011;14253;44.840;10.444;2022-12-18T11:06:20;60.88;;;30.55;;
26620;SDS011;14253;44.840;10.444;2022-12-18T11:09:03;56.22;;;29.42;;
26620;SDS011;14253;44.840;10.444;2022-12-18T11:11:31;58.97;;;28.40;;
26620;SDS011;14253;44.840;10.444;2022-12-18T11:14:00;58.70;;;29.25;;
26620;SDS011;14253;44.840;10.444;2022-12-18T11:21:51;48.95;;;25.52;;
26620;SDS011;14253;44.840;10.444;2022-12-18T11:24:23;45.05;;;24.45;;
26620;SDS011;14253;44.840;10.444;2022-12-18T11:26:58;44.45;;;24.58;;
26620;SDS011;14253;44.840;10.444;2022-12-18T11:29:30;46.08;;;24.25;;
26620;SDS011;14253;44.840;10.444;2022-12-18T11:34:52;51.28;;;27.33;;
26620;SDS011;14253;44.840;10.444;2022-12-18T11:37:38;52.40;;;26.77;;
26620;SDS011;14253;44.840;10.444;2022-12-18T11:40:17;44.88;;;25.83;;
26620;SDS011;14253;44.840;10.444;2022-12-18T11:43:04;47.83;;;26.15;;
26620;SDS011;14253;44.840;10.444;2022-12-18T11:45:43;48.00;;;25.63;;
26620;SDS011;14253;44.840;10.444;2022-12-18T11:48:24;49.55;;;25.60;;
26620;SDS011;14253;44.840;10.444;2022-12-18T11:51:11;45.65;;;24.45;;
26620;SDS011;14253;44.840;10.444;2022-12-18T11:53:43;47.10;;;25.38;;
26620;SDS011;14253;44.840;10.444;2022-12-18T11:56:21;42.83;;;23.50;;
26620;SDS011;14253;44.840;10.444;2022-12-18T12:04:19;48.35;;;24.85;;
26620;SDS011;14253;44.840;10.444;2022-12-18T12:23:46;50.75;;;25.95;;
26620;SDS011;14253;44.840;10.444;2022-12-18T12:40:46;47.15;;;25.95;;
26620;SDS011;14253;44.840;10.444;2022-12-18T12:43:55;44.83;;;26.83;;
26620;SDS011;14253;44.840;10.444;2022-12-18T12:46:23;44.35;;;22.17;;
26620;SDS011;14253;44.840;10.444;2022-12-18T12:51:25;51.63;;;27.60;;
26620;SDS011;14253;44.840;10.444;2022-12-18T12:54:00;42.90;;;24.17;;
26620;SDS011;14253;44.840;10.444;2022-12-18T12:56:40;50.42;;;26.08;;
26620;SDS011;14253;44.840;10.444;2022-12-18T13:04:30;47.50;;;24.33;;
26620;SDS011;14253;44.840;10.444;2022-12-18T13:07:21;46.35;;;25.88;;
26620;SDS011;14253;44.840;10.444;2022-12-18T13:12:57;48.20;;;24.90;;
26620;SDS011;14253;44.840;10.444;2022-12-18T13:15:43;46.88;;;25.75;;
26620;SDS011;14253;44.840;10.444;2022-12-18T13:20:45;45.10;;;26.15;;
26620;SDS011;14253;44.840;10.444;2022-12-18T13:23:33;49.30;;;27.20;;
26620;SDS011;14253;44.840;10.444;2022-12-18T13:34:19;49.63;;;27.38;;
26620;SDS011;14253;44.840;10.444;2022-12-18T13:36:47;47.88;;;25.45;;
26620;SDS011;14253;44.840;10.444;2022-12-18T13:41:43;46.80;;;25.63;;
26620;SDS011;14253;44.840;10.444;2022-12-18T13:44:35;56.90;;;27.80;;
26620;SDS011;14253;44.840;10.444;2022-12-18T13:47:05;42.15;;;25.05;;
26620;SDS011;14253;44.840;10.444;2022-12-18T13:49:57;45.42;;;24.15;;
26620;SDS011;14253;44.840;10.444;2022-12-18T13:52:24;45.65;;;26.00;;
26620;SDS011;14253;44.840;10.444;2022-12-18T13:54:58;45.42;;;24.92;;
26620;SDS011;14253;44.840;10.444;2022-12-18T13:57:30;46.47;;;26.67;;
26620;SDS011;14253;44.840;10.444;2022-12-18T13:59:59;43.83;;;23.60;;
26620;SDS011;14253;44.840;10.444;2022-12-18T14:02:47;47.60;;;26.15;;
26620;SDS011;14253;44.840;10.444;2022-12-18T14:05:24;43.55;;;26.35;;
26620;SDS011;14253;44.840;10.444;2022-12-18T14:07:52;48.30;;;26.05;;
26620;SDS011;14253;44.840;10.444;2022-12-18T14:10:19;42.13;;;24.98;;
26620;SDS011;14253;44.840;10.444;2022-12-18T14:12:48;44.88;;;25.58;;
26620;SDS011;14253;44.840;10.444;2022-12-18T14:20:27;44.45;;;25.70;;
26620;SDS011;14253;44.840;10.444;2022-12-18T14:22:56;46.10;;;26.23;;
26620;SDS011;14253;44.840;10.444;2022-12-18T14:25:23;50.70;;;27.45;;
26620;SDS011;14253;44.840;10.444;2022-12-18T14:27:53;48.85;;;26.25;;
26620;SDS011;14253;44.840;10.444;2022-12-18T14:30:37;50.07;;;27.83;;
26620;SDS011;14253;44.840;10.444;2022-12-18T14:33:08;44.45;;;26.10;;
26620;SDS011;14253;44.840;10.444;2022-12-18T14:35:39;47.17;;;26.58;;
26620;SDS011;14253;44.840;10.444;2022-12-18T14:38:35;46.22;;;24.73;;
26620;SDS011;14253;44.840;10.444;2022-12-18T14:41:03;44.53;;;25.25;;
26620;SDS011;14253;44.840;10.444;2022-12-18T14:43:36;44.28;;;23.73;;
26620;SDS011;14253;44.840;10.444;2022-12-18T14:49:02;46.85;;;26.95;;
26620;SDS011;14253;44.840;10.444;2022-12-18T14:51:52;44.92;;;25.63;;
26620;SDS011;14253;44.840;10.444;2022-12-18T14:54:20;44.33;;;25.95;;
26620;SDS011;14253;44.840;10.444;2022-12-18T14:56:48;46.13;;;26.40;;
26620;SDS011;14253;44.840;10.444;2022-12-18T14:59:35;47.97;;;26.30;;
26620;SDS011;14253;44.840;10.444;2022-12-18T15:04:40;48.00;;;26.75;;
26620;SDS011;14253;44.840;10.444;2022-12-18T15:12:43;51.22;;;28.02;;
26620;SDS011;14253;44.840;10.444;2022-12-18T15:21:11;44.42;;;25.98;;
26620;SDS011;14253;44.840;10.444;2022-12-18T15:23:57;45.80;;;27.02;;
26620;SDS011;14253;44.840;10.444;2022-12-18T15:26:22;45.15;;;26.38;;
26620;SDS011;14253;44.840;10.444;2022-12-18T15:36:22;47.00;;;27.25;;
26620;SDS011;14253;44.840;10.444;2022-12-18T15:38:49;45.63;;;26.50;;
26620;SDS011;14253;44.840;10.444;2022-12-18T15:41:17;47.85;;;27.35;;
26620;SDS011;14253;44.840;10.444;2022-12-18T15:43:47;42.15;;;26.02;;
26620;SDS011;14253;44.840;10.444;2022-12-18T15:46:23;47.70;;;27.67;;
26620;SDS011;14253;44.840;10.444;2022-12-18T15:48:51;53.65;;;27.67;;
26620;SDS011;14253;44.840;10.444;2022-12-18T15:51:34;51.20;;;30.07;;
26620;SDS011;14253;44.840;10.444;2022-12-18T15:54:03;57.95;;;31.92;;
26620;SDS011;14253;44.840;10.444;2022-12-18T15:56:31;62.67;;;33.97;;
26620;SDS011;14253;44.840;10.444;2022-12-18T15:59:17;65.40;;;35.22;;
26620;SDS011;14253;44.840;10.444;2022-12-18T16:01:45;69.95;;;35.88;;
26620;SDS011;14253;44.840;10.444;2022-12-18T16:04:14;70.93;;;34.67;;
26620;SDS011;14253;44.840;10.444;2022-12-18T16:06:42;62.08;;;33.33;;
26620;SDS011;14253;44.840;10.444;2022-12-18T16:09:08;70.15;;;34.05;;
26620;SDS011;14253;44.840;10.444;2022-12-18T16:11:35;76.03;;;37.10;;
26620;SDS011;14253;44.840;10.444;2022-12-18T16:14:19;79.55;;;38.08;;
26620;SDS011;14253;44.840;10.444;2022-12-18T16:16:57;68.93;;;35.50;;
26620;SDS011;14253;44.840;10.444;2022-12-18T16:21:51;66.57;;;34.47;;
26620;SDS011;14253;44.840;10.444;2022-12-18T16:24:24;69.85;;;38.55;;
26620;SDS011;14253;44.840;10.444;2022-12-18T16:26:52;68.68;;;38.88;;
26620;SDS011;14253;44.840;10.444;2022-12-18T16:29:18;61.47;;;34.55;;
26620;SDS011;14253;44.840;10.444;2022-12-18T16:31:50;73.70;;;37.08;;
26620;SDS011;14253;44.840;10.444;2022-12-18T16:34:20;69.30;;;36.63;;
26620;SDS011;14253;44.840;10.444;2022-12-18T16:36:56;63.13;;;34.15;;
26620;SDS011;14253;44.840;10.444;2022-12-18T16:39:24;65.95;;;34.58;;
26620;SDS011;14253;44.840;10.444;2022-12-18T16:41:51;67.53;;;36.95;;
26620;SDS011;14253;44.840;10.444;2022-12-18T16:44:18;70.97;;;36.28;;
26620;SDS011;14253;44.840;10.444;2022-12-18T16:46:46;64.68;;;34.70;;
26620;SDS011;14253;44.840;10.444;2022-12-18T16:49:13;70.75;;;35.85;;
26620;SDS011;14253;44.840;10.444;2022-12-18T16:51:42;60.92;;;33.00;;
26620;SDS011;14253;44.840;10.444;2022-12-18T16:54:08;67.93;;;34.00;;
26620;SDS011;14253;44.840;10.444;2022-12-18T16:56:34;65.03;;;34.40;;
26620;SDS011;14253;44.840;10.444;2022-12-18T16:59:01;71.85;;;35.03;;
26620;SDS011;14253;44.840;10.444;2022-12-18T17:01:29;68.88;;;33.70;;
26620;SDS011;14253;44.840;10.444;2022-12-18T17:04:00;74.50;;;36.70;;
26620;SDS011;14253;44.840;10.444;2022-12-18T17:06:29;67.35;;;33.47;;
26620;SDS011;14253;44.840;10.444;2022-12-18T17:08:59;71.50;;;34.38;;
26620;SDS011;14253;44.840;10.444;2022-12-18T17:11:28;69.95;;;33.65;;